sensor_id;sensor_type;location;lat;lon;timestamp;temperature;humidity
48946;DHT22;34999;50.940;3.998;2023-04-30T00:02:21;6.80;99.90
48946;DHT22;34999;50.940;3.998;2023-04-30T00:04:50;6.80;99.90
48946;DHT22;34999;50.940;3.998;2023-04-30T00:07:19;6.70;99.90
48946;DHT22;34999;50.940;3.998;2023-04-30T00:09:47;6.70;99.90
48946;DHT22;34999;50.940;3.998;2023-04-30T00:12:17;6.70;99.90
48946;DHT22;34999;50.940;3.998;2023-04-30T00:14:45;6.70;99.90
48946;DHT22;34999;50.940;3.998;2023-04-30T00:17:15;6.70;99.90
48946;DHT22;34999;50.940;3.998;2023-04-30T00:19:43;6.60;99.90
48946;DHT22;34999;50.940;3.998;2023-04-30T00:22:12;6.60;99.90
48946;DHT22;34999;50.940;3.998;2023-04-30T00:24:41;6.70;99.90
48946;DHT22;34999;50.940;3.998;2023-04-30T00:27:09;6.60;99.90
48946;DHT22;34999;50.940;3.998;2023-04-30T00:29:40;6.60;99.90
48946;DHT22;34999;50.940;3.998;2023-04-30T00:32:08;6.60;99.90
48946;DHT22;34999;50.940;3.998;2023-04-30T00:34:36;6.60;99.90
48946;DHT22;34999;50.940;3.998;2023-04-30T00:37:04;6.50;99.90
48946;DHT22;34999;50.940;3.998;2023-04-30T00:39:33;6.40;99.90
48946;DHT22;34999;50.940;3.998;2023-04-30T00:42:05;6.50;99.90
48946;DHT22;34999;50.940;3.998;2023-04-30T00:44:35;6.40;99.90
48946;DHT22;34999;50.940;3.998;2023-04-30T00:47:04;6.40;99.90
48946;DHT22;34999;50.940;3.998;2023-04-30T00:49:32;6.40;99.90
48946;DHT22;34999;50.940;3.998;2023-04-30T00:52:01;6.30;99.90
48946;DHT22;34999;50.940;3.998;2023-04-30T00:54:29;6.30;99.90
48946;DHT22;34999;50.940;3.998;2023-04-30T00:56:57;6.30;99.90
48946;DHT22;34999;50.940;3.998;2023-04-30T00:59:27;6.20;99.90
48946;DHT22;34999;50.940;3.998;2023-04-30T01:04:56;6.20;99.90
48946;DHT22;34999;50.940;3.998;2023-04-30T01:07:25;6.10;99.90
48946;DHT22;34999;50.940;3.998;2023-04-30T01:09:54;6.00;99.90
48946;DHT22;34999;50.940;3.998;2023-04-30T01:12:37;6.00;99.90
48946;DHT22;34999;50.940;3.998;2023-04-30T01:15:12;6.00;99.90
48946;DHT22;34999;50.940;3.998;2023-04-30T01:17:49;6.00;99.90
48946;DHT22;34999;50.940;3.998;2023-04-30T01:20:20;6.00;99.90
48946;DHT22;34999;50.940;3.998;2023-04-30T01:22:54;6.00;99.90
48946;DHT22;34999;50.940;3.998;2023-04-30T01:25:35;6.00;99.90
48946;DHT22;34999;50.940;3.998;2023-04-30T01:28:12;5.90;99.90
48946;DHT22;34999;50.940;3.998;2023-04-30T01:30:42;5.90;99.90
48946;DHT22;34999;50.940;3.998;2023-04-30T01:33:12;5.90;99.90
48946;DHT22;34999;50.940;3.998;2023-04-30T01:35:56;5.90;99.90
48946;DHT22;34999;50.940;3.998;2023-04-30T01:38:34;5.90;99.90
48946;DHT22;34999;50.940;3.998;2023-04-30T01:41:09;5.90;99.90
48946;DHT22;34999;50.940;3.998;2023-04-30T01:43:49;5.80;99.90
48946;DHT22;34999;50.940;3.998;2023-04-30T01:46:24;5.80;99.90
48946;DHT22;34999;50.940;3.998;2023-04-30T01:49:04;5.80;99.90
48946;DHT22;34999;50.940;3.998;2023-04-30T01:51:39;5.70;99.90
48946;DHT22;34999;50.940;3.998;2023-04-30T01:54:15;5.70;99.90
48946;DHT22;34999;50.940;3.998;2023-04-30T01:56:52;5.70;99.90
48946;DHT22;34999;50.940;3.998;2023-04-30T01:59:24;5.70;99.90
48946;DHT22;34999;50.940;3.998;2023-04-30T02:01:54;5.70;99.90
48946;DHT22;34999;50.940;3.998;2023-04-30T02:04:23;5.60;99.90
48946;DHT22;34999;50.940;3.998;2023-04-30T02:06:51;5.60;99.90
48946;DHT22;34999;50.940;3.998;2023-04-30T02:09:20;5.60;99.90
48946;DHT22;34999;50.940;3.998;2023-04-30T02:11:50;5.60;99.90
48946;DHT22;34999;50.940;3.998;2023-04-30T02:14:18;5.60;99.90
48946;DHT22;34999;50.940;3.998;2023-04-30T02:16:47;5.60;99.90
48946;DHT22;34999;50.940;3.998;2023-04-30T02:19:16;5.60;99.90
48946;DHT22;34999;50.940;3.998;2023-04-30T02:21:44;5.60;99.90
48946;DHT22;34999;50.940;3.998;2023-04-30T02:24:12;5.60;99.90
48946;DHT22;34999;50.940;3.998;2023-04-30T02:26:40;5.50;99.90
48946;DHT22;34999;50.940;3.998;2023-04-30T02:29:09;5.50;99.90
48946;DHT22;34999;50.940;3.998;2023-04-30T02:31:37;5.40;99.90
48946;DHT22;34999;50.940;3.998;2023-04-30T02:34:06;5.40;99.90
48946;DHT22;34999;50.940;3.998;2023-04-30T02:36:35;5.30;99.90
48946;DHT22;34999;50.940;3.998;2023-04-30T02:39:03;5.30;99.90
48946;DHT22;34999;50.940;3.998;2023-04-30T02:41:32;5.30;99.90
48946;DHT22;34999;50.940;3.998;2023-04-30T02:44:00;5.30;99.90
48946;DHT22;34999;50.940;3.998;2023-04-30T02:46:29;5.20;99.90
48946;DHT22;34999;50.940;3.998;2023-04-30T02:48:57;5.30;99.90
48946;DHT22;34999;50.940;3.998;2023-04-30T02:51:27;5.30;99.90
48946;DHT22;34999;50.940;3.998;2023-04-30T02:53:55;5.30;99.90
48946;DHT22;34999;50.940;3.998;2023-04-30T02:56:23;5.20;99.90
48946;DHT22;34999;50.940;3.998;2023-04-30T02:58:52;5.20;99.90
48946;DHT22;34999;50.940;3.998;2023-04-30T03:01:20;5.10;99.90
48946;DHT22;34999;50.940;3.998;2023-04-30T03:03:49;5.10;99.90
48946;DHT22;34999;50.940;3.998;2023-04-30T03:06:17;5.10;99.90
48946;DHT22;34999;50.940;3.998;2023-04-30T03:08:46;5.10;99.90
48946;DHT22;34999;50.940;3.998;2023-04-30T03:11:15;5.10;99.90
48946;DHT22;34999;50.940;3.998;2023-04-30T03:13:43;5.00;99.90
48946;DHT22;34999;50.940;3.998;2023-04-30T03:16:12;5.00;99.90
48946;DHT22;34999;50.940;3.998;2023-04-30T03:18:40;5.00;99.90
48946;DHT22;34999;50.940;3.998;2023-04-30T03:21:08;5.00;99.90
48946;DHT22;34999;50.940;3.998;2023-04-30T03:23:36;4.90;99.90
48946;DHT22;34999;50.940;3.998;2023-04-30T03:26:06;4.90;99.90
48946;DHT22;34999;50.940;3.998;2023-04-30T03:28:35;4.80;99.90
48946;DHT22;34999;50.940;3.998;2023-04-30T03:31:03;4.80;99.90
48946;DHT22;34999;50.940;3.998;2023-04-30T03:33:32;4.80;99.90
48946;DHT22;34999;50.940;3.998;2023-04-30T03:36:00;4.80;99.90
48946;DHT22;34999;50.940;3.998;2023-04-30T03:38:29;4.80;99.90
48946;DHT22;34999;50.940;3.998;2023-04-30T03:40:57;4.80;99.90
48946;DHT22;34999;50.940;3.998;2023-04-30T03:43:27;4.70;99.90
48946;DHT22;34999;50.940;3.998;2023-04-30T03:45:55;4.70;99.90
48946;DHT22;34999;50.940;3.998;2023-04-30T03:48:23;4.70;99.90
48946;DHT22;34999;50.940;3.998;2023-04-30T03:50:51;4.70;99.90
48946;DHT22;34999;50.940;3.998;2023-04-30T03:53:20;4.70;99.90
48946;DHT22;34999;50.940;3.998;2023-04-30T03:55:48;4.70;99.90
48946;DHT22;34999;50.940;3.998;2023-04-30T03:58:17;4.70;99.90
48946;DHT22;34999;50.940;3.998;2023-04-30T04:00:46;4.80;99.90
48946;DHT22;34999;50.940;3.998;2023-04-30T04:03:15;4.80;99.90
48946;DHT22;34999;50.940;3.998;2023-04-30T04:05:44;4.80;99.90
48946;DHT22;34999;50.940;3.998;2023-04-30T04:08:13;4.70;99.90
48946;DHT22;34999;50.940;3.998;2023-04-30T04:10:42;4.80;99.90
48946;DHT22;34999;50.940;3.998;2023-04-30T04:13:10;4.70;99.90
48946;DHT22;34999;50.940;3.998;2023-04-30T04:15:39;4.70;99.90
48946;DHT22;34999;50.940;3.998;2023-04-30T04:18:08;4.60;99.90
48946;DHT22;34999;50.940;3.998;2023-04-30T04:20:37;4.60;99.90
48946;DHT22;34999;50.940;3.998;2023-04-30T04:23:05;4.60;99.90
48946;DHT22;34999;50.940;3.998;2023-04-30T04:25:34;4.60;99.90
48946;DHT22;34999;50.940;3.998;2023-04-30T04:28:02;4.70;99.90
48946;DHT22;34999;50.940;3.998;2023-04-30T04:30:30;4.70;99.90
48946;DHT22;34999;50.940;3.998;2023-04-30T04:32:59;4.70;99.90
48946;DHT22;34999;50.940;3.998;2023-04-30T04:35:29;4.70;99.90
48946;DHT22;34999;50.940;3.998;2023-04-30T04:37:57;4.70;99.90
48946;DHT22;34999;50.940;3.998;2023-04-30T04:40:26;4.80;99.90
48946;DHT22;34999;50.940;3.998;2023-04-30T04:42:57;4.80;99.90
48946;DHT22;34999;50.940;3.998;2023-04-30T04:45:25;4.80;99.90
48946;DHT22;34999;50.940;3.998;2023-04-30T04:47:54;4.80;99.90
48946;DHT22;34999;50.940;3.998;2023-04-30T04:50:23;4.80;99.90
48946;DHT22;34999;50.940;3.998;2023-04-30T04:52:52;4.80;99.90
48946;DHT22;34999;50.940;3.998;2023-04-30T04:55:21;4.80;99.90
48946;DHT22;34999;50.940;3.998;2023-04-30T04:57:49;4.90;99.90
48946;DHT22;34999;50.940;3.998;2023-04-30T05:00:17;5.00;99.90
48946;DHT22;34999;50.940;3.998;2023-04-30T05:02:48;5.10;99.90
48946;DHT22;34999;50.940;3.998;2023-04-30T05:05:16;5.20;99.90
48946;DHT22;34999;50.940;3.998;2023-04-30T05:07:44;5.20;99.90
48946;DHT22;34999;50.940;3.998;2023-04-30T05:10:14;5.30;99.90
48946;DHT22;34999;50.940;3.998;2023-04-30T05:12:42;5.40;99.90
48946;DHT22;34999;50.940;3.998;2023-04-30T05:15:11;5.40;99.90
48946;DHT22;34999;50.940;3.998;2023-04-30T05:17:39;5.50;99.90
48946;DHT22;34999;50.940;3.998;2023-04-30T05:20:09;5.60;99.90
48946;DHT22;34999;50.940;3.998;2023-04-30T05:22:38;5.70;99.90
48946;DHT22;34999;50.940;3.998;2023-04-30T05:25:07;5.80;99.90
48946;DHT22;34999;50.940;3.998;2023-04-30T05:27:37;6.00;99.90
48946;DHT22;34999;50.940;3.998;2023-04-30T05:30:06;6.10;99.90
48946;DHT22;34999;50.940;3.998;2023-04-30T05:32:35;6.40;99.90
48946;DHT22;34999;50.940;3.998;2023-04-30T05:35:04;6.50;99.90
48946;DHT22;34999;50.940;3.998;2023-04-30T05:37:32;6.70;99.90
48946;DHT22;34999;50.940;3.998;2023-04-30T05:40:01;6.90;99.90
48946;DHT22;34999;50.940;3.998;2023-04-30T05:42:29;7.00;99.90
48946;DHT22;34999;50.940;3.998;2023-04-30T05:44:58;7.30;99.90
48946;DHT22;34999;50.940;3.998;2023-04-30T05:47:27;7.40;99.90
48946;DHT22;34999;50.940;3.998;2023-04-30T05:49:55;7.60;99.90
48946;DHT22;34999;50.940;3.998;2023-04-30T05:52:23;7.80;99.90
48946;DHT22;34999;50.940;3.998;2023-04-30T05:54:52;8.00;99.90
48946;DHT22;34999;50.940;3.998;2023-04-30T05:57:20;8.20;99.90
48946;DHT22;34999;50.940;3.998;2023-04-30T05:59:49;8.40;99.90
48946;DHT22;34999;50.940;3.998;2023-04-30T06:02:19;8.60;99.90
48946;DHT22;34999;50.940;3.998;2023-04-30T06:04:47;8.80;99.90
48946;DHT22;34999;50.940;3.998;2023-04-30T06:07:15;9.00;99.90
48946;DHT22;34999;50.940;3.998;2023-04-30T06:12:12;9.40;99.90
48946;DHT22;34999;50.940;3.998;2023-04-30T06:14:40;9.60;99.90
48946;DHT22;34999;50.940;3.998;2023-04-30T06:17:11;9.80;99.90
48946;DHT22;34999;50.940;3.998;2023-04-30T06:19:41;9.90;99.90
48946;DHT22;34999;50.940;3.998;2023-04-30T06:22:09;10.10;99.90
48946;DHT22;34999;50.940;3.998;2023-04-30T06:24:37;10.30;99.90
48946;DHT22;34999;50.940;3.998;2023-04-30T06:27:05;10.40;99.90
48946;DHT22;34999;50.940;3.998;2023-04-30T06:29:34;10.60;99.90
48946;DHT22;34999;50.940;3.998;2023-04-30T06:32:02;10.80;99.90
48946;DHT22;34999;50.940;3.998;2023-04-30T06:34:34;10.90;99.90
48946;DHT22;34999;50.940;3.998;2023-04-30T06:37:04;11.10;99.90
48946;DHT22;34999;50.940;3.998;2023-04-30T06:39:32;11.30;99.90
48946;DHT22;34999;50.940;3.998;2023-04-30T06:42:00;11.50;99.90
48946;DHT22;34999;50.940;3.998;2023-04-30T06:44:29;11.60;99.90
48946;DHT22;34999;50.940;3.998;2023-04-30T06:46:59;11.70;99.90
48946;DHT22;34999;50.940;3.998;2023-04-30T06:49:27;11.80;99.90
48946;DHT22;34999;50.940;3.998;2023-04-30T06:51:55;11.90;99.90
48946;DHT22;34999;50.940;3.998;2023-04-30T06:54:25;12.00;99.90
48946;DHT22;34999;50.940;3.998;2023-04-30T06:56:53;12.30;99.90
48946;DHT22;34999;50.940;3.998;2023-04-30T06:59:22;12.50;99.90
48946;DHT22;34999;50.940;3.998;2023-04-30T07:01:50;12.50;99.90
48946;DHT22;34999;50.940;3.998;2023-04-30T07:04:19;12.60;99.90
48946;DHT22;34999;50.940;3.998;2023-04-30T07:06:47;12.70;99.90
48946;DHT22;34999;50.940;3.998;2023-04-30T07:09:16;13.00;99.90
48946;DHT22;34999;50.940;3.998;2023-04-30T07:11:46;13.10;99.90
48946;DHT22;34999;50.940;3.998;2023-04-30T07:14:14;13.30;99.90
48946;DHT22;34999;50.940;3.998;2023-04-30T07:16:44;13.50;99.90
48946;DHT22;34999;50.940;3.998;2023-04-30T07:19:12;13.50;99.90
48946;DHT22;34999;50.940;3.998;2023-04-30T07:21:40;13.90;99.90
48946;DHT22;34999;50.940;3.998;2023-04-30T07:24:08;14.00;99.90
48946;DHT22;34999;50.940;3.998;2023-04-30T07:26:37;14.10;99.90
48946;DHT22;34999;50.940;3.998;2023-04-30T07:29:06;14.30;99.90
48946;DHT22;34999;50.940;3.998;2023-04-30T07:31:34;14.30;99.90
48946;DHT22;34999;50.940;3.998;2023-04-30T07:34:03;14.50;99.90
48946;DHT22;34999;50.940;3.998;2023-04-30T07:36:31;14.50;99.90
48946;DHT22;34999;50.940;3.998;2023-04-30T07:38:59;14.70;99.90
48946;DHT22;34999;50.940;3.998;2023-04-30T07:41:27;14.70;99.90
48946;DHT22;34999;50.940;3.998;2023-04-30T07:43:56;14.90;99.90
48946;DHT22;34999;50.940;3.998;2023-04-30T07:46:27;15.30;99.90
48946;DHT22;34999;50.940;3.998;2023-04-30T07:48:55;15.60;99.90
48946;DHT22;34999;50.940;3.998;2023-04-30T07:51:24;15.70;99.90
48946;DHT22;34999;50.940;3.998;2023-04-30T07:53:52;15.80;99.90
48946;DHT22;34999;50.940;3.998;2023-04-30T07:56:21;15.80;99.90
48946;DHT22;34999;50.940;3.998;2023-04-30T07:58:49;15.90;99.90
48946;DHT22;34999;50.940;3.998;2023-04-30T08:01:17;16.00;99.90
48946;DHT22;34999;50.940;3.998;2023-04-30T08:03:47;16.30;99.90
48946;DHT22;34999;50.940;3.998;2023-04-30T08:06:15;16.60;99.90
48946;DHT22;34999;50.940;3.998;2023-04-30T08:08:44;16.80;99.90
48946;DHT22;34999;50.940;3.998;2023-04-30T08:11:14;16.90;99.90
48946;DHT22;34999;50.940;3.998;2023-04-30T08:13:42;16.90;99.90
48946;DHT22;34999;50.940;3.998;2023-04-30T08:16:11;17.00;99.90
48946;DHT22;34999;50.940;3.998;2023-04-30T08:18:39;17.30;99.90
48946;DHT22;34999;50.940;3.998;2023-04-30T08:21:12;17.90;99.90
48946;DHT22;34999;50.940;3.998;2023-04-30T08:23:40;18.20;99.90
48946;DHT22;34999;50.940;3.998;2023-04-30T08:26:08;18.50;99.90
48946;DHT22;34999;50.940;3.998;2023-04-30T08:28:37;18.60;99.90
48946;DHT22;34999;50.940;3.998;2023-04-30T08:31:05;18.70;99.90
48946;DHT22;34999;50.940;3.998;2023-04-30T08:33:34;18.70;99.90
48946;DHT22;34999;50.940;3.998;2023-04-30T08:36:03;19.00;99.90
48946;DHT22;34999;50.940;3.998;2023-04-30T08:38:32;19.40;99.90
48946;DHT22;34999;50.940;3.998;2023-04-30T08:41:07;19.40;99.90
48946;DHT22;34999;50.940;3.998;2023-04-30T08:43:36;19.40;99.90
48946;DHT22;34999;50.940;3.998;2023-04-30T08:46:05;19.60;99.90
48946;DHT22;34999;50.940;3.998;2023-04-30T08:48:34;19.80;99.90
48946;DHT22;34999;50.940;3.998;2023-04-30T08:51:03;20.00;99.90
48946;DHT22;34999;50.940;3.998;2023-04-30T08:53:34;20.30;99.90
48946;DHT22;34999;50.940;3.998;2023-04-30T08:56:04;20.50;99.90
48946;DHT22;34999;50.940;3.998;2023-04-30T08:58:33;20.80;99.90
48946;DHT22;34999;50.940;3.998;2023-04-30T09:01:02;21.10;99.90
48946;DHT22;34999;50.940;3.998;2023-04-30T09:03:33;21.30;99.90
48946;DHT22;34999;50.940;3.998;2023-04-30T09:06:02;21.70;99.90
48946;DHT22;34999;50.940;3.998;2023-04-30T09:08:45;21.90;99.90
48946;DHT22;34999;50.940;3.998;2023-04-30T09:11:24;21.90;99.90
48946;DHT22;34999;50.940;3.998;2023-04-30T09:13:54;22.00;99.90
48946;DHT22;34999;50.940;3.998;2023-04-30T09:16:25;22.50;99.90
48946;DHT22;34999;50.940;3.998;2023-04-30T09:18:54;22.80;99.90
48946;DHT22;34999;50.940;3.998;2023-04-30T09:21:30;22.80;99.90
48946;DHT22;34999;50.940;3.998;2023-04-30T09:24:02;22.40;99.90
48946;DHT22;34999;50.940;3.998;2023-04-30T09:26:31;22.70;99.90
48946;DHT22;34999;50.940;3.998;2023-04-30T09:29:00;23.20;99.90
48946;DHT22;34999;50.940;3.998;2023-04-30T09:31:34;24.00;99.90
48946;DHT22;34999;50.940;3.998;2023-04-30T09:34:02;23.90;99.90
48946;DHT22;34999;50.940;3.998;2023-04-30T09:36:32;23.40;99.90
48946;DHT22;34999;50.940;3.998;2023-04-30T09:39:09;23.30;99.90
48946;DHT22;34999;50.940;3.998;2023-04-30T09:41:42;23.20;99.90
48946;DHT22;34999;50.940;3.998;2023-04-30T09:44:25;23.40;99.90
48946;DHT22;34999;50.940;3.998;2023-04-30T09:46:55;23.40;99.90
48946;DHT22;34999;50.940;3.998;2023-04-30T09:49:24;23.30;99.90
48946;DHT22;34999;50.940;3.998;2023-04-30T09:51:54;23.00;99.90
48946;DHT22;34999;50.940;3.998;2023-04-30T09:54:26;23.00;99.90
48946;DHT22;34999;50.940;3.998;2023-04-30T09:56:55;23.30;99.90
48946;DHT22;34999;50.940;3.998;2023-04-30T09:59:28;23.50;99.90
48946;DHT22;34999;50.940;3.998;2023-04-30T10:01:58;23.90;99.90
48946;DHT22;34999;50.940;3.998;2023-04-30T10:04:32;24.50;99.90
48946;DHT22;34999;50.940;3.998;2023-04-30T10:07:03;24.70;99.90
48946;DHT22;34999;50.940;3.998;2023-04-30T10:09:38;24.40;99.90
48946;DHT22;34999;50.940;3.998;2023-04-30T10:12:13;24.20;99.90
48946;DHT22;34999;50.940;3.998;2023-04-30T10:14:50;24.10;99.90
48946;DHT22;34999;50.940;3.998;2023-04-30T10:17:19;23.40;99.90
48946;DHT22;34999;50.940;3.998;2023-04-30T10:19:51;23.20;99.90
48946;DHT22;34999;50.940;3.998;2023-04-30T10:22:22;23.10;99.90
48946;DHT22;34999;50.940;3.998;2023-04-30T10:24:53;23.30;99.90
48946;DHT22;34999;50.940;3.998;2023-04-30T10:27:21;23.10;99.90
48946;DHT22;34999;50.940;3.998;2023-04-30T10:29:50;23.30;99.90
48946;DHT22;34999;50.940;3.998;2023-04-30T10:32:19;23.40;99.90
48946;DHT22;34999;50.940;3.998;2023-04-30T10:34:54;22.90;99.90
48946;DHT22;34999;50.940;3.998;2023-04-30T10:37:30;22.10;99.90
48946;DHT22;34999;50.940;3.998;2023-04-30T10:40:00;21.70;99.90
48946;DHT22;34999;50.940;3.998;2023-04-30T10:42:35;22.20;99.90
48946;DHT22;34999;50.940;3.998;2023-04-30T10:45:09;22.40;99.90
48946;DHT22;34999;50.940;3.998;2023-04-30T10:47:41;22.80;99.90
48946;DHT22;34999;50.940;3.998;2023-04-30T10:50:10;22.70;99.90
48946;DHT22;34999;50.940;3.998;2023-04-30T10:52:39;22.60;99.90
48946;DHT22;34999;50.940;3.998;2023-04-30T10:55:09;23.00;99.90
48946;DHT22;34999;50.940;3.998;2023-04-30T10:57:40;23.20;99.90
48946;DHT22;34999;50.940;3.998;2023-04-30T11:00:19;23.10;99.90
48946;DHT22;34999;50.940;3.998;2023-04-30T11:02:56;23.10;99.90
48946;DHT22;34999;50.940;3.998;2023-04-30T11:05:35;23.20;99.90
48946;DHT22;34999;50.940;3.998;2023-04-30T11:08:04;23.00;99.90
48946;DHT22;34999;50.940;3.998;2023-04-30T11:10:56;23.00;99.90
48946;DHT22;34999;50.940;3.998;2023-04-30T11:13:25;22.20;99.90
48946;DHT22;34999;50.940;3.998;2023-04-30T11:15:54;22.10;99.90
48946;DHT22;34999;50.940;3.998;2023-04-30T11:18:29;22.50;99.90
48946;DHT22;34999;50.940;3.998;2023-04-30T11:20:58;23.20;99.90
48946;DHT22;34999;50.940;3.998;2023-04-30T11:23:26;23.30;99.90
48946;DHT22;34999;50.940;3.998;2023-04-30T11:26:09;22.50;99.90
48946;DHT22;34999;50.940;3.998;2023-04-30T11:28:37;21.40;99.90
48946;DHT22;34999;50.940;3.998;2023-04-30T11:31:05;21.30;99.90
48946;DHT22;34999;50.940;3.998;2023-04-30T11:33:34;21.60;99.90
48946;DHT22;34999;50.940;3.998;2023-04-30T11:36:03;21.60;99.90
48946;DHT22;34999;50.940;3.998;2023-04-30T11:38:34;21.90;99.90
48946;DHT22;34999;50.940;3.998;2023-04-30T11:41:03;22.40;99.90
48946;DHT22;34999;50.940;3.998;2023-04-30T11:43:33;22.30;99.90
48946;DHT22;34999;50.940;3.998;2023-04-30T11:46:06;22.00;99.90
48946;DHT22;34999;50.940;3.998;2023-04-30T11:48:37;21.50;99.90
48946;DHT22;34999;50.940;3.998;2023-04-30T11:51:14;21.10;99.90
48946;DHT22;34999;50.940;3.998;2023-04-30T11:53:44;21.00;99.90
48946;DHT22;34999;50.940;3.998;2023-04-30T11:56:13;21.00;99.90
48946;DHT22;34999;50.940;3.998;2023-04-30T11:58:45;20.90;99.90
48946;DHT22;34999;50.940;3.998;2023-04-30T12:01:14;20.60;99.90
48946;DHT22;34999;50.940;3.998;2023-04-30T12:03:43;20.70;99.90
48946;DHT22;34999;50.940;3.998;2023-04-30T12:06:21;20.80;99.90
48946;DHT22;34999;50.940;3.998;2023-04-30T12:08:51;20.90;99.90
48946;DHT22;34999;50.940;3.998;2023-04-30T12:11:21;21.00;99.90
48946;DHT22;34999;50.940;3.998;2023-04-30T12:13:54;21.40;99.90
48946;DHT22;34999;50.940;3.998;2023-04-30T12:16:23;21.40;99.90
48946;DHT22;34999;50.940;3.998;2023-04-30T12:18:52;21.20;99.90
48946;DHT22;34999;50.940;3.998;2023-04-30T12:21:21;21.30;99.90
48946;DHT22;34999;50.940;3.998;2023-04-30T12:23:50;21.00;99.90
48946;DHT22;34999;50.940;3.998;2023-04-30T12:26:18;21.20;99.90
48946;DHT22;34999;50.940;3.998;2023-04-30T12:28:47;21.20;99.90
48946;DHT22;34999;50.940;3.998;2023-04-30T12:31:17;20.90;99.90
48946;DHT22;34999;50.940;3.998;2023-04-30T12:33:55;20.90;99.90
48946;DHT22;34999;50.940;3.998;2023-04-30T12:36:29;20.90;99.90
48946;DHT22;34999;50.940;3.998;2023-04-30T12:39:04;20.80;99.90
48946;DHT22;34999;50.940;3.998;2023-04-30T12:41:36;20.80;99.90
48946;DHT22;34999;50.940;3.998;2023-04-30T12:44:18;20.90;99.90
48946;DHT22;34999;50.940;3.998;2023-04-30T12:46:49;21.30;99.90
48946;DHT22;34999;50.940;3.998;2023-04-30T12:49:26;21.20;99.90
48946;DHT22;34999;50.940;3.998;2023-04-30T12:51:58;21.30;99.90
48946;DHT22;34999;50.940;3.998;2023-04-30T12:54:29;21.20;99.90
48946;DHT22;34999;50.940;3.998;2023-04-30T12:56:59;21.00;99.90
48946;DHT22;34999;50.940;3.998;2023-04-30T12:59:28;20.80;99.90
48946;DHT22;34999;50.940;3.998;2023-04-30T13:02:06;20.70;99.90
48946;DHT22;34999;50.940;3.998;2023-04-30T13:04:35;20.60;99.90
48946;DHT22;34999;50.940;3.998;2023-04-30T13:07:04;20.50;99.90
48946;DHT22;34999;50.940;3.998;2023-04-30T13:09:33;20.40;99.90
48946;DHT22;34999;50.940;3.998;2023-04-30T13:12:02;20.30;99.90
48946;DHT22;34999;50.940;3.998;2023-04-30T13:14:31;20.50;99.90
48946;DHT22;34999;50.940;3.998;2023-04-30T13:16:59;20.60;99.90
48946;DHT22;34999;50.940;3.998;2023-04-30T13:19:32;20.60;99.90
48946;DHT22;34999;50.940;3.998;2023-04-30T13:22:00;20.40;99.90
48946;DHT22;34999;50.940;3.998;2023-04-30T13:24:29;20.30;99.90
48946;DHT22;34999;50.940;3.998;2023-04-30T13:26:57;20.40;99.90
48946;DHT22;34999;50.940;3.998;2023-04-30T13:29:26;20.50;99.90
48946;DHT22;34999;50.940;3.998;2023-04-30T13:31:54;20.50;99.90
48946;DHT22;34999;50.940;3.998;2023-04-30T13:34:23;20.40;99.90
48946;DHT22;34999;50.940;3.998;2023-04-30T13:36:52;20.20;99.90
48946;DHT22;34999;50.940;3.998;2023-04-30T13:39:20;19.80;99.90
48946;DHT22;34999;50.940;3.998;2023-04-30T13:41:49;19.60;99.90
48946;DHT22;34999;50.940;3.998;2023-04-30T13:44:17;19.40;99.90
48946;DHT22;34999;50.940;3.998;2023-04-30T13:46:45;19.50;99.90
48946;DHT22;34999;50.940;3.998;2023-04-30T13:49:14;19.80;99.90
48946;DHT22;34999;50.940;3.998;2023-04-30T13:51:42;20.00;99.90
48946;DHT22;34999;50.940;3.998;2023-04-30T13:54:12;20.20;99.90
48946;DHT22;34999;50.940;3.998;2023-04-30T13:56:40;20.40;99.90
48946;DHT22;34999;50.940;3.998;2023-04-30T13:59:09;20.20;99.90
48946;DHT22;34999;50.940;3.998;2023-04-30T14:01:37;20.20;99.90
48946;DHT22;34999;50.940;3.998;2023-04-30T14:04:06;20.00;99.90
48946;DHT22;34999;50.940;3.998;2023-04-30T14:06:35;20.10;99.90
48946;DHT22;34999;50.940;3.998;2023-04-30T14:09:04;20.40;99.90
48946;DHT22;34999;50.940;3.998;2023-04-30T14:11:34;20.90;99.90
48946;DHT22;34999;50.940;3.998;2023-04-30T14:14:02;21.00;99.90
48946;DHT22;34999;50.940;3.998;2023-04-30T14:16:31;21.10;99.90
48946;DHT22;34999;50.940;3.998;2023-04-30T14:18:59;21.10;99.90
48946;DHT22;34999;50.940;3.998;2023-04-30T14:21:27;21.10;99.90
48946;DHT22;34999;50.940;3.998;2023-04-30T14:23:56;21.00;99.90
48946;DHT22;34999;50.940;3.998;2023-04-30T14:26:24;21.00;99.90
48946;DHT22;34999;50.940;3.998;2023-04-30T14:28:54;21.40;99.90
48946;DHT22;34999;50.940;3.998;2023-04-30T14:31:22;21.40;99.90
48946;DHT22;34999;50.940;3.998;2023-04-30T14:33:51;21.30;99.90
48946;DHT22;34999;50.940;3.998;2023-04-30T14:36:19;21.30;99.90
48946;DHT22;34999;50.940;3.998;2023-04-30T14:38:48;21.30;99.90
48946;DHT22;34999;50.940;3.998;2023-04-30T14:41:16;21.10;99.90
48946;DHT22;34999;50.940;3.998;2023-04-30T14:43:44;21.10;99.90
48946;DHT22;34999;50.940;3.998;2023-04-30T14:46:14;21.30;99.90
48946;DHT22;34999;50.940;3.998;2023-04-30T14:48:42;21.30;99.90
48946;DHT22;34999;50.940;3.998;2023-04-30T14:51:11;21.20;99.90
48946;DHT22;34999;50.940;3.998;2023-04-30T14:53:39;21.40;99.90
48946;DHT22;34999;50.940;3.998;2023-04-30T14:56:07;21.80;99.90
48946;DHT22;34999;50.940;3.998;2023-04-30T14:58:36;22.00;99.90
48946;DHT22;34999;50.940;3.998;2023-04-30T15:01:04;22.20;99.90
48946;DHT22;34999;50.940;3.998;2023-04-30T15:03:34;22.40;99.90
48946;DHT22;34999;50.940;3.998;2023-04-30T15:06:02;22.20;99.90
48946;DHT22;34999;50.940;3.998;2023-04-30T15:08:31;21.60;99.90
48946;DHT22;34999;50.940;3.998;2023-04-30T15:10:59;21.10;99.90
48946;DHT22;34999;50.940;3.998;2023-04-30T15:13:27;21.00;99.90
48946;DHT22;34999;50.940;3.998;2023-04-30T15:15:56;20.80;99.90
48946;DHT22;34999;50.940;3.998;2023-04-30T15:18:24;20.70;99.90
48946;DHT22;34999;50.940;3.998;2023-04-30T15:20:54;20.50;99.90
48946;DHT22;34999;50.940;3.998;2023-04-30T15:23:22;20.30;99.90
48946;DHT22;34999;50.940;3.998;2023-04-30T15:25:50;20.30;99.90
48946;DHT22;34999;50.940;3.998;2023-04-30T15:28:19;20.50;99.90
48946;DHT22;34999;50.940;3.998;2023-04-30T15:30:50;20.50;99.90
48946;DHT22;34999;50.940;3.998;2023-04-30T15:33:18;20.50;99.90
48946;DHT22;34999;50.940;3.998;2023-04-30T15:35:47;20.50;99.90
48946;DHT22;34999;50.940;3.998;2023-04-30T15:38:17;20.40;99.90
48946;DHT22;34999;50.940;3.998;2023-04-30T15:40:45;20.40;99.90
48946;DHT22;34999;50.940;3.998;2023-04-30T15:43:13;20.40;99.90
48946;DHT22;34999;50.940;3.998;2023-04-30T15:45:42;20.30;99.90
48946;DHT22;34999;50.940;3.998;2023-04-30T15:48:11;20.40;99.90
48946;DHT22;34999;50.940;3.998;2023-04-30T15:50:40;20.40;99.90
48946;DHT22;34999;50.940;3.998;2023-04-30T15:53:09;20.70;99.90
48946;DHT22;34999;50.940;3.998;2023-04-30T15:55:38;20.80;99.90
48946;DHT22;34999;50.940;3.998;2023-04-30T15:58:07;20.90;99.90
48946;DHT22;34999;50.940;3.998;2023-04-30T16:00:35;21.10;99.90